sensor_id;sensor_type;location;lat;lon;timestamp;P1;durP1;ratioP1;P2;durP2;ratioP2
59756;SDS011;45631;51.962;5.974;2023-08-24T00:01:51;7.85;;;3.70;;
59756;SDS011;45631;51.962;5.974;2023-08-24T00:04:19;9.80;;;4.22;;
59756;SDS011;45631;51.962;5.974;2023-08-24T00:06:47;7.38;;;3.45;;
59756;SDS011;45631;51.962;5.974;2023-08-24T00:09:17;10.07;;;4.43;;
59756;SDS011;45631;51.962;5.974;2023-08-24T00:11:45;11.57;;;4.70;;
59756;SDS011;45631;51.962;5.974;2023-08-24T00:14:13;8.75;;;4.70;;
59756;SDS011;45631;51.962;5.974;2023-08-24T00:16:41;9.15;;;4.38;;
59756;SDS011;45631;51.962;5.974;2023-08-24T00:19:10;7.60;;;4.40;;
59756;SDS011;45631;51.962;5.974;2023-08-24T00:21:38;9.32;;;4.40;;
59756;SDS011;45631;51.962;5.974;2023-08-24T00:24:06;7.20;;;4.13;;
59756;SDS011;45631;51.962;5.974;2023-08-24T00:26:36;9.00;;;4.60;;
59756;SDS011;45631;51.962;5.974;2023-08-24T00:29:04;9.48;;;4.82;;
59756;SDS011;45631;51.962;5.974;2023-08-24T00:31:32;7.78;;;4.70;;
59756;SDS011;45631;51.962;5.974;2023-08-24T00:34:00;8.48;;;4.72;;
59756;SDS011;45631;51.962;5.974;2023-08-24T00:36:29;11.23;;;5.38;;
59756;SDS011;45631;51.962;5.974;2023-08-24T00:38:57;9.25;;;5.32;;
59756;SDS011;45631;51.962;5.974;2023-08-24T00:41:25;8.98;;;4.95;;
59756;SDS011;45631;51.962;5.974;2023-08-24T00:43:55;10.02;;;4.75;;
59756;SDS011;45631;51.962;5.974;2023-08-24T00:46:24;9.25;;;5.50;;
59756;SDS011;45631;51.962;5.974;2023-08-24T00:48:54;12.80;;;5.00;;
59756;SDS011;45631;51.962;5.974;2023-08-24T00:51:24;10.57;;;5.47;;
59756;SDS011;45631;51.962;5.974;2023-08-24T00:53:52;11.55;;;5.05;;
59756;SDS011;45631;51.962;5.974;2023-08-24T00:56:21;10.25;;;5.60;;
59756;SDS011;45631;51.962;5.974;2023-08-24T00:58:51;11.35;;;5.47;;
59756;SDS011;45631;51.962;5.974;2023-08-24T01:01:23;10.65;;;5.03;;
59756;SDS011;45631;51.962;5.974;2023-08-24T01:03:51;8.43;;;5.40;;
59756;SDS011;45631;51.962;5.974;2023-08-24T01:06:19;10.40;;;5.22;;
59756;SDS011;45631;51.962;5.974;2023-08-24T01:08:47;11.45;;;6.15;;
59756;SDS011;45631;51.962;5.974;2023-08-24T01:11:19;11.00;;;7.30;;
59756;SDS011;45631;51.962;5.974;2023-08-24T01:13:59;11.70;;;7.22;;
59756;SDS011;45631;51.962;5.974;2023-08-24T01:16:37;11.82;;;6.97;;
59756;SDS011;45631;51.962;5.974;2023-08-24T01:21:43;12.25;;;6.45;;
59756;SDS011;45631;51.962;5.974;2023-08-24T01:24:14;11.77;;;6.80;;
59756;SDS011;45631;51.962;5.974;2023-08-24T01:26:48;12.55;;;7.20;;
59756;SDS011;45631;51.962;5.974;2023-08-24T01:31:47;12.02;;;6.60;;
59756;SDS011;45631;51.962;5.974;2023-08-24T01:34:16;13.38;;;7.05;;
59756;SDS011;45631;51.962;5.974;2023-08-24T01:36:45;10.43;;;6.60;;
59756;SDS011;45631;51.962;5.974;2023-08-24T01:39:14;12.75;;;7.22;;
59756;SDS011;45631;51.962;5.974;2023-08-24T01:41:50;9.98;;;7.05;;
59756;SDS011;45631;51.962;5.974;2023-08-24T01:44:20;10.83;;;7.00;;
59756;SDS011;45631;51.962;5.974;2023-08-24T01:46:51;11.57;;;7.50;;
59756;SDS011;45631;51.962;5.974;2023-08-24T01:49:20;11.75;;;6.72;;
59756;SDS011;45631;51.962;5.974;2023-08-24T01:51:50;11.80;;;7.45;;
59756;SDS011;45631;51.962;5.974;2023-08-24T01:54:19;12.80;;;7.20;;
59756;SDS011;45631;51.962;5.974;2023-08-24T01:56:47;11.90;;;6.95;;
59756;SDS011;45631;51.962;5.974;2023-08-24T01:59:16;11.00;;;7.85;;
59756;SDS011;45631;51.962;5.974;2023-08-24T02:01:47;12.07;;;7.82;;
59756;SDS011;45631;51.962;5.974;2023-08-24T02:04:15;15.15;;;8.65;;
59756;SDS011;45631;51.962;5.974;2023-08-24T02:06:43;16.50;;;8.23;;
59756;SDS011;45631;51.962;5.974;2023-08-24T02:09:11;16.38;;;8.98;;
59756;SDS011;45631;51.962;5.974;2023-08-24T02:11:39;13.48;;;8.27;;
59756;SDS011;45631;51.962;5.974;2023-08-24T02:14:07;14.23;;;8.90;;
59756;SDS011;45631;51.962;5.974;2023-08-24T02:16:37;14.27;;;8.65;;
59756;SDS011;45631;51.962;5.974;2023-08-24T02:19:06;14.02;;;9.35;;
59756;SDS011;45631;51.962;5.974;2023-08-24T02:21:35;13.48;;;8.32;;
59756;SDS011;45631;51.962;5.974;2023-08-24T02:24:04;13.10;;;8.55;;
59756;SDS011;45631;51.962;5.974;2023-08-24T02:26:32;12.75;;;8.52;;
59756;SDS011;45631;51.962;5.974;2023-08-24T02:29:01;12.00;;;8.25;;
59756;SDS011;45631;51.962;5.974;2023-08-24T02:31:29;13.50;;;8.77;;
59756;SDS011;45631;51.962;5.974;2023-08-24T02:33:59;13.38;;;9.48;;
59756;SDS011;45631;51.962;5.974;2023-08-24T02:36:29;13.60;;;8.45;;
59756;SDS011;45631;51.962;5.974;2023-08-24T02:38:59;13.98;;;8.65;;
59756;SDS011;45631;51.962;5.974;2023-08-24T02:41:28;14.82;;;9.63;;
59756;SDS011;45631;51.962;5.974;2023-08-24T02:43:57;15.05;;;9.30;;
59756;SDS011;45631;51.962;5.974;2023-08-24T02:46:25;13.43;;;8.57;;
59756;SDS011;45631;51.962;5.974;2023-08-24T02:48:53;12.45;;;8.77;;
59756;SDS011;45631;51.962;5.974;2023-08-24T02:51:22;14.05;;;8.70;;
59756;SDS011;45631;51.962;5.974;2023-08-24T02:53:51;13.00;;;9.75;;
59756;SDS011;45631;51.962;5.974;2023-08-24T02:56:19;13.35;;;9.00;;
59756;SDS011;45631;51.962;5.974;2023-08-24T02:58:47;18.80;;;10.05;;
59756;SDS011;45631;51.962;5.974;2023-08-24T03:01:15;13.55;;;9.30;;
59756;SDS011;45631;51.962;5.974;2023-08-24T03:03:43;14.57;;;9.88;;
59756;SDS011;45631;51.962;5.974;2023-08-24T03:06:12;14.68;;;9.85;;
59756;SDS011;45631;51.962;5.974;2023-08-24T03:08:41;14.30;;;10.07;;
59756;SDS011;45631;51.962;5.974;2023-08-24T03:11:09;15.52;;;10.27;;
59756;SDS011;45631;51.962;5.974;2023-08-24T03:13:37;15.20;;;10.93;;
59756;SDS011;45631;51.962;5.974;2023-08-24T03:16:05;13.90;;;10.55;;
59756;SDS011;45631;51.962;5.974;2023-08-24T03:18:34;14.73;;;10.13;;
59756;SDS011;45631;51.962;5.974;2023-08-24T03:21:03;17.23;;;10.57;;
59756;SDS011;45631;51.962;5.974;2023-08-24T03:23:31;17.50;;;10.98;;
59756;SDS011;45631;51.962;5.974;2023-08-24T03:26:00;14.98;;;10.75;;
59756;SDS011;45631;51.962;5.974;2023-08-24T03:28:29;16.65;;;10.35;;
59756;SDS011;45631;51.962;5.974;2023-08-24T03:30:57;15.02;;;10.98;;
59756;SDS011;45631;51.962;5.974;2023-08-24T03:33:26;16.73;;;10.63;;
59756;SDS011;45631;51.962;5.974;2023-08-24T03:35:54;15.20;;;11.68;;
59756;SDS011;45631;51.962;5.974;2023-08-24T03:38:22;16.55;;;11.50;;
59756;SDS011;45631;51.962;5.974;2023-08-24T03:40:50;17.92;;;11.20;;
59756;SDS011;45631;51.962;5.974;2023-08-24T03:43:20;16.58;;;10.93;;
59756;SDS011;45631;51.962;5.974;2023-08-24T03:45:48;14.75;;;10.73;;
59756;SDS011;45631;51.962;5.974;2023-08-24T03:48:16;17.05;;;11.88;;
59756;SDS011;45631;51.962;5.974;2023-08-24T03:50:44;19.92;;;11.48;;
59756;SDS011;45631;51.962;5.974;2023-08-24T03:53:12;15.57;;;10.63;;
59756;SDS011;45631;51.962;5.974;2023-08-24T03:55:40;17.80;;;11.13;;
59756;SDS011;45631;51.962;5.974;2023-08-24T03:58:09;15.68;;;12.00;;
59756;SDS011;45631;51.962;5.974;2023-08-24T04:00:38;16.83;;;11.60;;
59756;SDS011;45631;51.962;5.974;2023-08-24T04:03:08;17.20;;;11.02;;
59756;SDS011;45631;51.962;5.974;2023-08-24T04:05:36;18.80;;;11.63;;
59756;SDS011;45631;51.962;5.974;2023-08-24T04:08:04;16.23;;;12.43;;
59756;SDS011;45631;51.962;5.974;2023-08-24T04:10:37;16.05;;;11.57;;
59756;SDS011;45631;51.962;5.974;2023-08-24T04:13:05;15.55;;;11.27;;
59756;SDS011;45631;51.962;5.974;2023-08-24T04:15:33;16.42;;;11.57;;
59756;SDS011;45631;51.962;5.974;2023-08-24T04:18:03;15.20;;;11.10;;
59756;SDS011;45631;51.962;5.974;2023-08-24T04:20:32;17.60;;;11.50;;
59756;SDS011;45631;51.962;5.974;2023-08-24T04:23:01;15.45;;;11.60;;
59756;SDS011;45631;51.962;5.974;2023-08-24T04:28:01;17.08;;;11.52;;
59756;SDS011;45631;51.962;5.974;2023-08-24T04:30:32;17.90;;;11.13;;
59756;SDS011;45631;51.962;5.974;2023-08-24T04:33:00;13.73;;;10.05;;
59756;SDS011;45631;51.962;5.974;2023-08-24T04:35:33;16.92;;;10.60;;
59756;SDS011;45631;51.962;5.974;2023-08-24T04:38:03;14.85;;;10.73;;
59756;SDS011;45631;51.962;5.974;2023-08-24T04:40:43;17.00;;;11.48;;
59756;SDS011;45631;51.962;5.974;2023-08-24T04:43:16;14.60;;;10.98;;
59756;SDS011;45631;51.962;5.974;2023-08-24T04:45:45;15.63;;;11.43;;
59756;SDS011;45631;51.962;5.974;2023-08-24T04:48:14;16.88;;;11.50;;
59756;SDS011;45631;51.962;5.974;2023-08-24T04:50:44;16.55;;;11.88;;
59756;SDS011;45631;51.962;5.974;2023-08-24T04:53:13;16.17;;;11.55;;
59756;SDS011;45631;51.962;5.974;2023-08-24T04:55:43;17.45;;;11.75;;
59756;SDS011;45631;51.962;5.974;2023-08-24T04:58:12;15.75;;;11.70;;
59756;SDS011;45631;51.962;5.974;2023-08-24T05:00:40;16.58;;;12.65;;
59756;SDS011;45631;51.962;5.974;2023-08-24T05:03:09;18.88;;;12.02;;
59756;SDS011;45631;51.962;5.974;2023-08-24T05:05:40;16.77;;;12.73;;
59756;SDS011;45631;51.962;5.974;2023-08-24T05:08:09;16.25;;;13.10;;
59756;SDS011;45631;51.962;5.974;2023-08-24T05:10:39;18.75;;;12.45;;
59756;SDS011;45631;51.962;5.974;2023-08-24T05:13:07;17.23;;;12.05;;
59756;SDS011;45631;51.962;5.974;2023-08-24T05:15:36;18.63;;;12.60;;
59756;SDS011;45631;51.962;5.974;2023-08-24T05:18:04;20.90;;;12.10;;
59756;SDS011;45631;51.962;5.974;2023-08-24T05:20:32;15.57;;;11.35;;
59756;SDS011;45631;51.962;5.974;2023-08-24T05:23:00;17.05;;;12.13;;
59756;SDS011;45631;51.962;5.974;2023-08-24T05:25:30;15.60;;;11.25;;
59756;SDS011;45631;51.962;5.974;2023-08-24T05:28:00;16.45;;;12.20;;
59756;SDS011;45631;51.962;5.974;2023-08-24T05:30:32;15.27;;;12.18;;
59756;SDS011;45631;51.962;5.974;2023-08-24T05:33:00;18.55;;;12.63;;
59756;SDS011;45631;51.962;5.974;2023-08-24T05:35:28;15.02;;;12.18;;
59756;SDS011;45631;51.962;5.974;2023-08-24T05:37:56;17.58;;;12.23;;
59756;SDS011;45631;51.962;5.974;2023-08-24T05:40:25;15.63;;;12.55;;
59756;SDS011;45631;51.962;5.974;2023-08-24T05:42:54;16.10;;;12.20;;
59756;SDS011;45631;51.962;5.974;2023-08-24T05:45:22;14.35;;;12.07;;
59756;SDS011;45631;51.962;5.974;2023-08-24T05:47:54;17.58;;;12.57;;
59756;SDS011;45631;51.962;5.974;2023-08-24T05:50:22;18.23;;;13.15;;
59756;SDS011;45631;51.962;5.974;2023-08-24T05:52:51;16.70;;;12.88;;
59756;SDS011;45631;51.962;5.974;2023-08-24T05:55:19;20.73;;;13.50;;
59756;SDS011;45631;51.962;5.974;2023-08-24T05:57:47;17.73;;;12.88;;
59756;SDS011;45631;51.962;5.974;2023-08-24T06:00:18;19.83;;;13.32;;
59756;SDS011;45631;51.962;5.974;2023-08-24T06:05:19;17.02;;;12.43;;
59756;SDS011;45631;51.962;5.974;2023-08-24T06:07:48;16.17;;;12.02;;
59756;SDS011;45631;51.962;5.974;2023-08-24T06:10:16;15.35;;;12.32;;
59756;SDS011;45631;51.962;5.974;2023-08-24T06:12:45;22.17;;;12.88;;
59756;SDS011;45631;51.962;5.974;2023-08-24T06:15:13;18.45;;;13.23;;
59756;SDS011;45631;51.962;5.974;2023-08-24T06:17:43;18.23;;;12.00;;
59756;SDS011;45631;51.962;5.974;2023-08-24T06:20:13;19.35;;;12.50;;
59756;SDS011;45631;51.962;5.974;2023-08-24T06:22:41;16.52;;;13.25;;
59756;SDS011;45631;51.962;5.974;2023-08-24T06:25:09;17.27;;;13.18;;
59756;SDS011;45631;51.962;5.974;2023-08-24T06:27:37;17.40;;;13.18;;
59756;SDS011;45631;51.962;5.974;2023-08-24T06:30:06;16.80;;;13.60;;
59756;SDS011;45631;51.962;5.974;2023-08-24T06:32:34;16.40;;;13.02;;
59756;SDS011;45631;51.962;5.974;2023-08-24T06:35:05;18.70;;;13.88;;
59756;SDS011;45631;51.962;5.974;2023-08-24T06:37:33;15.35;;;12.68;;
59756;SDS011;45631;51.962;5.974;2023-08-24T06:40:02;15.45;;;13.07;;
59756;SDS011;45631;51.962;5.974;2023-08-24T06:42:31;17.98;;;13.55;;
59756;SDS011;45631;51.962;5.974;2023-08-24T06:44:59;21.98;;;13.88;;
59756;SDS011;45631;51.962;5.974;2023-08-24T06:47:30;17.60;;;12.60;;
59756;SDS011;45631;51.962;5.974;2023-08-24T06:49:58;19.58;;;13.75;;
59756;SDS011;45631;51.962;5.974;2023-08-24T06:52:28;18.13;;;13.63;;
59756;SDS011;45631;51.962;5.974;2023-08-24T06:54:56;17.92;;;12.48;;
59756;SDS011;45631;51.962;5.974;2023-08-24T06:57:24;16.38;;;12.73;;
59756;SDS011;45631;51.962;5.974;2023-08-24T06:59:52;17.00;;;12.40;;
59756;SDS011;45631;51.962;5.974;2023-08-24T07:02:21;22.98;;;14.45;;
59756;SDS011;45631;51.962;5.974;2023-08-24T07:04:49;20.65;;;13.70;;
59756;SDS011;45631;51.962;5.974;2023-08-24T07:07:17;18.33;;;14.13;;
59756;SDS011;45631;51.962;5.974;2023-08-24T07:09:47;17.38;;;12.80;;
59756;SDS011;45631;51.962;5.974;2023-08-24T07:12:15;16.38;;;13.00;;
59756;SDS011;45631;51.962;5.974;2023-08-24T07:14:44;18.65;;;12.25;;
59756;SDS011;45631;51.962;5.974;2023-08-24T07:17:12;16.15;;;12.35;;
59756;SDS011;45631;51.962;5.974;2023-08-24T07:19:40;17.23;;;13.05;;
59756;SDS011;45631;51.962;5.974;2023-08-24T07:22:08;15.68;;;12.23;;
59756;SDS011;45631;51.962;5.974;2023-08-24T07:24:36;19.85;;;13.05;;
59756;SDS011;45631;51.962;5.974;2023-08-24T07:27:14;17.40;;;12.30;;
59756;SDS011;45631;51.962;5.974;2023-08-24T07:29:45;19.58;;;13.10;;
59756;SDS011;45631;51.962;5.974;2023-08-24T07:32:13;14.55;;;11.93;;
59756;SDS011;45631;51.962;5.974;2023-08-24T07:34:42;20.73;;;12.20;;
59756;SDS011;45631;51.962;5.974;2023-08-24T07:37:10;16.25;;;12.15;;
59756;SDS011;45631;51.962;5.974;2023-08-24T07:39:38;17.73;;;12.15;;
59756;SDS011;45631;51.962;5.974;2023-08-24T07:42:06;15.48;;;11.52;;
59756;SDS011;45631;51.962;5.974;2023-08-24T07:44:36;15.55;;;12.02;;
59756;SDS011;45631;51.962;5.974;2023-08-24T07:47:04;14.50;;;10.70;;
59756;SDS011;45631;51.962;5.974;2023-08-24T07:49:32;15.55;;;11.40;;
59756;SDS011;45631;51.962;5.974;2023-08-24T07:52:01;17.98;;;12.43;;
59756;SDS011;45631;51.962;5.974;2023-08-24T07:54:29;15.43;;;11.80;;
59756;SDS011;45631;51.962;5.974;2023-08-24T07:56:57;17.88;;;12.80;;
59756;SDS011;45631;51.962;5.974;2023-08-24T07:59:25;18.58;;;11.10;;
59756;SDS011;45631;51.962;5.974;2023-08-24T08:01:55;14.63;;;10.90;;
59756;SDS011;45631;51.962;5.974;2023-08-24T08:04:26;16.55;;;11.30;;
59756;SDS011;45631;51.962;5.974;2023-08-24T08:06:54;16.60;;;11.43;;
59756;SDS011;45631;51.962;5.974;2023-08-24T08:09:22;16.00;;;10.43;;
59756;SDS011;45631;51.962;5.974;2023-08-24T08:11:50;13.70;;;9.77;;
59756;SDS011;45631;51.962;5.974;2023-08-24T08:14:20;14.75;;;11.05;;
59756;SDS011;45631;51.962;5.974;2023-08-24T08:16:48;15.65;;;11.23;;
59756;SDS011;45631;51.962;5.974;2023-08-24T08:19:17;14.63;;;10.70;;
59756;SDS011;45631;51.962;5.974;2023-08-24T08:21:49;14.77;;;11.32;;
59756;SDS011;45631;51.962;5.974;2023-08-24T08:24:17;16.05;;;11.18;;
59756;SDS011;45631;51.962;5.974;2023-08-24T08:26:51;17.33;;;11.45;;
59756;SDS011;45631;51.962;5.974;2023-08-24T08:29:20;16.45;;;11.52;;
59756;SDS011;45631;51.962;5.974;2023-08-24T08:31:48;15.45;;;10.70;;
59756;SDS011;45631;51.962;5.974;2023-08-24T08:34:20;15.07;;;10.93;;
59756;SDS011;45631;51.962;5.974;2023-08-24T08:36:48;16.65;;;11.30;;
59756;SDS011;45631;51.962;5.974;2023-08-24T08:39:16;15.30;;;11.45;;
59756;SDS011;45631;51.962;5.974;2023-08-24T08:41:47;15.48;;;10.00;;
59756;SDS011;45631;51.962;5.974;2023-08-24T08:44:16;15.80;;;10.85;;
59756;SDS011;45631;51.962;5.974;2023-08-24T08:46:45;16.27;;;10.65;;
59756;SDS011;45631;51.962;5.974;2023-08-24T08:49:15;15.10;;;9.30;;
59756;SDS011;45631;51.962;5.974;2023-08-24T08:51:45;15.00;;;9.25;;
59756;SDS011;45631;51.962;5.974;2023-08-24T08:54:13;14.60;;;10.00;;
59756;SDS011;45631;51.962;5.974;2023-08-24T08:56:41;14.38;;;8.73;;
59756;SDS011;45631;51.962;5.974;2023-08-24T08:59:10;11.27;;;8.60;;
59756;SDS011;45631;51.962;5.974;2023-08-24T09:01:41;13.60;;;9.20;;
59756;SDS011;45631;51.962;5.974;2023-08-24T09:04:10;13.13;;;9.00;;
59756;SDS011;45631;51.962;5.974;2023-08-24T09:06:39;15.35;;;8.82;;
59756;SDS011;45631;51.962;5.974;2023-08-24T09:09:10;12.13;;;9.02;;
59756;SDS011;45631;51.962;5.974;2023-08-24T09:11:39;12.20;;;8.60;;
59756;SDS011;45631;51.962;5.974;2023-08-24T09:14:08;18.65;;;8.93;;
59756;SDS011;45631;51.962;5.974;2023-08-24T09:16:37;15.15;;;8.82;;
59756;SDS011;45631;51.962;5.974;2023-08-24T09:19:05;15.00;;;8.85;;
59756;SDS011;45631;51.962;5.974;2023-08-24T09:21:36;13.63;;;8.35;;
59756;SDS011;45631;51.962;5.974;2023-08-24T09:24:05;13.90;;;8.70;;
59756;SDS011;45631;51.962;5.974;2023-08-24T09:26:36;13.10;;;8.32;;
59756;SDS011;45631;51.962;5.974;2023-08-24T09:29:13;13.43;;;8.55;;
59756;SDS011;45631;51.962;5.974;2023-08-24T09:31:42;15.23;;;8.05;;
59756;SDS011;45631;51.962;5.974;2023-08-24T09:34:11;11.95;;;8.02;;
59756;SDS011;45631;51.962;5.974;2023-08-24T09:36:40;12.50;;;7.63;;
59756;SDS011;45631;51.962;5.974;2023-08-24T09:39:10;12.07;;;8.05;;
59756;SDS011;45631;51.962;5.974;2023-08-24T09:41:41;13.05;;;8.23;;
59756;SDS011;45631;51.962;5.974;2023-08-24T09:44:11;14.13;;;7.85;;
59756;SDS011;45631;51.962;5.974;2023-08-24T09:46:39;15.98;;;8.88;;
59756;SDS011;45631;51.962;5.974;2023-08-24T09:49:08;14.20;;;9.15;;
59756;SDS011;45631;51.962;5.974;2023-08-24T09:51:38;11.95;;;8.20;;
59756;SDS011;45631;51.962;5.974;2023-08-24T09:54:08;15.85;;;7.85;;
59756;SDS011;45631;51.962;5.974;2023-08-24T09:56:37;12.38;;;7.93;;
59756;SDS011;45631;51.962;5.974;2023-08-24T09:59:10;12.90;;;8.90;;
59756;SDS011;45631;51.962;5.974;2023-08-24T10:01:43;14.27;;;8.25;;
59756;SDS011;45631;51.962;5.974;2023-08-24T10:04:14;14.65;;;7.85;;
59756;SDS011;45631;51.962;5.974;2023-08-24T10:06:44;15.90;;;8.00;;
59756;SDS011;45631;51.962;5.974;2023-08-24T10:09:19;13.98;;;7.95;;
59756;SDS011;45631;51.962;5.974;2023-08-24T10:11:51;13.02;;;7.45;;
59756;SDS011;45631;51.962;5.974;2023-08-24T10:14:26;11.85;;;8.40;;
59756;SDS011;45631;51.962;5.974;2023-08-24T10:16:58;12.60;;;6.88;;
59756;SDS011;45631;51.962;5.974;2023-08-24T10:19:27;10.52;;;6.65;;
59756;SDS011;45631;51.962;5.974;2023-08-24T10:21:56;10.55;;;6.88;;
59756;SDS011;45631;51.962;5.974;2023-08-24T10:24:28;11.68;;;8.02;;
59756;SDS011;45631;51.962;5.974;2023-08-24T10:26:57;10.65;;;8.07;;
59756;SDS011;45631;51.962;5.974;2023-08-24T10:29:28;14.98;;;8.52;;
59756;SDS011;45631;51.962;5.974;2023-08-24T10:31:57;12.10;;;7.40;;
59756;SDS011;45631;51.962;5.974;2023-08-24T10:34:26;13.27;;;7.90;;
59756;SDS011;45631;51.962;5.974;2023-08-24T10:36:54;13.35;;;7.88;;
59756;SDS011;45631;51.962;5.974;2023-08-24T10:39:26;13.38;;;7.93;;
59756;SDS011;45631;51.962;5.974;2023-08-24T10:41:55;13.30;;;8.60;;
59756;SDS011;45631;51.962;5.974;2023-08-24T10:44:24;11.93;;;8.20;;
59756;SDS011;45631;51.962;5.974;2023-08-24T10:47:14;14.50;;;7.97;;
59756;SDS011;45631;51.962;5.974;2023-08-24T10:49:56;12.45;;;8.10;;
59756;SDS011;45631;51.962;5.974;2023-08-24T10:52:30;12.65;;;8.02;;
59756;SDS011;45631;51.962;5.974;2023-08-24T10:57:34;14.95;;;7.57;;
59756;SDS011;45631;51.962;5.974;2023-08-24T11:00:04;11.43;;;6.65;;
59756;SDS011;45631;51.962;5.974;2023-08-24T11:02:44;12.00;;;6.40;;
59756;SDS011;45631;51.962;5.974;2023-08-24T11:05:14;15.27;;;6.32;;
59756;SDS011;45631;51.962;5.974;2023-08-24T11:07:51;14.13;;;6.55;;
59756;SDS011;45631;51.962;5.974;2023-08-24T11:10:21;12.18;;;6.53;;
59756;SDS011;45631;51.962;5.974;2023-08-24T11:13:06;9.68;;;5.68;;
59756;SDS011;45631;51.962;5.974;2023-08-24T11:15:39;10.55;;;6.65;;
59756;SDS011;45631;51.962;5.974;2023-08-24T11:18:19;12.50;;;6.32;;
59756;SDS011;45631;51.962;5.974;2023-08-24T11:20:50;13.75;;;6.93;;
59756;SDS011;45631;51.962;5.974;2023-08-24T11:23:20;11.68;;;6.20;;
59756;SDS011;45631;51.962;5.974;2023-08-24T11:25:49;10.90;;;6.43;;
59756;SDS011;45631;51.962;5.974;2023-08-24T11:28:21;16.50;;;6.20;;
59756;SDS011;45631;51.962;5.974;2023-08-24T11:30:50;14.13;;;6.63;;
59756;SDS011;45631;51.962;5.974;2023-08-24T11:33:29;11.32;;;7.13;;
59756;SDS011;45631;51.962;5.974;2023-08-24T11:35:58;12.35;;;7.53;;
59756;SDS011;45631;51.962;5.974;2023-08-24T11:38:36;16.15;;;7.28;;
59756;SDS011;45631;51.962;5.974;2023-08-24T11:41:12;14.63;;;7.63;;
59756;SDS011;45631;51.962;5.974;2023-08-24T11:43:42;14.48;;;7.50;;
59756;SDS011;45631;51.962;5.974;2023-08-24T11:46:11;13.65;;;8.00;;
59756;SDS011;45631;51.962;5.974;2023-08-24T11:48:41;11.98;;;8.43;;
59756;SDS011;45631;51.962;5.974;2023-08-24T11:51:10;13.25;;;7.82;;
59756;SDS011;45631;51.962;5.974;2023-08-24T11:53:40;14.98;;;8.38;;
59756;SDS011;45631;51.962;5.974;2023-08-24T11:56:09;12.65;;;8.82;;
59756;SDS011;45631;51.962;5.974;2023-08-24T11:58:38;12.20;;;8.23;;
59756;SDS011;45631;51.962;5.974;2023-08-24T12:01:07;12.70;;;8.40;;
59756;SDS011;45631;51.962;5.974;2023-08-24T12:03:36;11.43;;;7.35;;
59756;SDS011;45631;51.962;5.974;2023-08-24T12:06:11;13.90;;;7.63;;
59756;SDS011;45631;51.962;5.974;2023-08-24T12:08:41;14.23;;;8.05;;
59756;SDS011;45631;51.962;5.974;2023-08-24T12:11:10;15.00;;;8.65;;
59756;SDS011;45631;51.962;5.974;2023-08-24T12:13:43;14.70;;;9.27;;
59756;SDS011;45631;51.962;5.974;2023-08-24T12:18:47;13.18;;;8.98;;
59756;SDS011;45631;51.962;5.974;2023-08-24T12:21:21;13.55;;;8.55;;
59756;SDS011;45631;51.962;5.974;2023-08-24T12:23:56;14.02;;;8.07;;
59756;SDS011;45631;51.962;5.974;2023-08-24T12:26:25;15.10;;;8.05;;
59756;SDS011;45631;51.962;5.974;2023-08-24T12:28:55;14.80;;;7.82;;
59756;SDS011;45631;51.962;5.974;2023-08-24T12:31:29;12.82;;;8.20;;
59756;SDS011;45631;51.962;5.974;2023-08-24T12:33:58;12.73;;;8.25;;
59756;SDS011;45631;51.962;5.974;2023-08-24T12:36:29;14.10;;;7.55;;
59756;SDS011;45631;51.962;5.974;2023-08-24T12:38:57;12.63;;;7.72;;
59756;SDS011;45631;51.962;5.974;2023-08-24T12:41:25;11.13;;;7.32;;
59756;SDS011;45631;51.962;5.974;2023-08-24T12:43:54;12.63;;;7.07;;
59756;SDS011;45631;51.962;5.974;2023-08-24T12:46:22;12.23;;;7.25;;
59756;SDS011;45631;51.962;5.974;2023-08-24T12:48:51;14.95;;;6.90;;
59756;SDS011;45631;51.962;5.974;2023-08-24T12:51:22;10.05;;;6.50;;
59756;SDS011;45631;51.962;5.974;2023-08-24T12:53:52;13.55;;;7.40;;
59756;SDS011;45631;51.962;5.974;2023-08-24T12:56:20;11.82;;;7.05;;
59756;SDS011;45631;51.962;5.974;2023-08-24T12:58:48;11.48;;;6.15;;
59756;SDS011;45631;51.962;5.974;2023-08-24T13:01:17;12.30;;;6.40;;
59756;SDS011;45631;51.962;5.974;2023-08-24T13:03:45;11.40;;;6.55;;
59756;SDS011;45631;51.962;5.974;2023-08-24T13:06:13;10.85;;;6.50;;
59756;SDS011;45631;51.962;5.974;2023-08-24T13:08:50;12.18;;;6.05;;
59756;SDS011;45631;51.962;5.974;2023-08-24T13:11:21;11.30;;;6.00;;
59756;SDS011;45631;51.962;5.974;2023-08-24T13:13:50;10.27;;;5.55;;
59756;SDS011;45631;51.962;5.974;2023-08-24T13:16:18;12.48;;;5.95;;
59756;SDS011;45631;51.962;5.974;2023-08-24T13:18:46;10.20;;;5.47;;
59756;SDS011;45631;51.962;5.974;2023-08-24T13:21:14;11.95;;;5.72;;
59756;SDS011;45631;51.962;5.974;2023-08-24T13:23:44;13.73;;;5.20;;
59756;SDS011;45631;51.962;5.974;2023-08-24T13:26:20;10.00;;;5.55;;
59756;SDS011;45631;51.962;5.974;2023-08-24T13:28:50;10.68;;;5.53;;
59756;SDS011;45631;51.962;5.974;2023-08-24T13:31:18;10.82;;;5.10;;
59756;SDS011;45631;51.962;5.974;2023-08-24T13:33:46;10.55;;;4.95;;
59756;SDS011;45631;51.962;5.974;2023-08-24T13:36:17;10.15;;;5.18;;
59756;SDS011;45631;51.962;5.974;2023-08-24T13:38:45;10.52;;;5.15;;
59756;SDS011;45631;51.962;5.974;2023-08-24T13:41:13;12.18;;;5.50;;
59756;SDS011;45631;51.962;5.974;2023-08-24T13:43:46;13.75;;;5.70;;
59756;SDS011;45631;51.962;5.974;2023-08-24T13:46:14;11.73;;;6.55;;
59756;SDS011;45631;51.962;5.974;2023-08-24T13:48:42;10.60;;;5.32;;
59756;SDS011;45631;51.962;5.974;2023-08-24T13:51:10;11.35;;;5.53;;
59756;SDS011;45631;51.962;5.974;2023-08-24T13:53:38;12.27;;;5.82;;
59756;SDS011;45631;51.962;5.974;2023-08-24T13:56:06;9.75;;;5.78;;
59756;SDS011;45631;51.962;5.974;2023-08-24T13:58:35;12.15;;;5.72;;
59756;SDS011;45631;51.962;5.974;2023-08-24T14:01:04;12.27;;;5.70;;
59756;SDS011;45631;51.962;5.974;2023-08-24T14:03:35;10.68;;;5.00;;
59756;SDS011;45631;51.962;5.974;2023-08-24T14:06:04;9.25;;;5.32;;
59756;SDS011;45631;51.962;5.974;2023-08-24T14:08:32;10.57;;;5.18;;
59756;SDS011;45631;51.962;5.974;2023-08-24T14:11:02;9.50;;;5.00;;
59756;SDS011;45631;51.962;5.974;2023-08-24T14:13:30;10.82;;;5.00;;
59756;SDS011;45631;51.962;5.974;2023-08-24T14:15:58;10.93;;;4.97;;
59756;SDS011;45631;51.962;5.974;2023-08-24T14:18:28;13.85;;;5.43;;
59756;SDS011;45631;51.962;5.974;2023-08-24T14:20:57;10.18;;;5.78;;
59756;SDS011;45631;51.962;5.974;2023-08-24T14:23:25;11.27;;;5.40;;
59756;SDS011;45631;51.962;5.974;2023-08-24T14:25:55;9.95;;;5.70;;
59756;SDS011;45631;51.962;5.974;2023-08-24T14:28:24;12.57;;;5.05;;
59756;SDS011;45631;51.962;5.974;2023-08-24T14:30:54;11.25;;;6.05;;
59756;SDS011;45631;51.962;5.974;2023-08-24T14:33:22;10.90;;;5.45;;
59756;SDS011;45631;51.962;5.974;2023-08-24T14:35:52;11.52;;;6.18;;
59756;SDS011;45631;51.962;5.974;2023-08-24T14:38:21;10.02;;;5.63;;
59756;SDS011;45631;51.962;5.974;2023-08-24T14:40:49;13.70;;;6.45;;
59756;SDS011;45631;51.962;5.974;2023-08-24T14:43:17;11.50;;;6.45;;
59756;SDS011;45631;51.962;5.974;2023-08-24T14:45:46;12.60;;;5.40;;
59756;SDS011;45631;51.962;5.974;2023-08-24T14:48:14;9.35;;;5.47;;
59756;SDS011;45631;51.962;5.974;2023-08-24T14:50:42;9.68;;;5.55;;
59756;SDS011;45631;51.962;5.974;2023-08-24T14:53:12;11.25;;;5.15;;
59756;SDS011;45631;51.962;5.974;2023-08-24T14:55:40;12.10;;;5.93;;
59756;SDS011;45631;51.962;5.974;2023-08-24T14:58:11;10.45;;;5.20;;
59756;SDS011;45631;51.962;5.974;2023-08-24T15:00:39;8.98;;;5.35;;